sensor_id;sensor_type;location;lat;lon;timestamp;P1;durP1;ratioP1;P2;durP2;ratioP2
4214;SDS011;2121;48.062;7.850;2023-11-22T00:00:06;13.20;;;9.67;;
4214;SDS011;2121;48.062;7.850;2023-11-22T00:02:37;15.77;;;9.73;;
4214;SDS011;2121;48.062;7.850;2023-11-22T00:05:03;14.33;;;9.10;;
4214;SDS011;2121;48.062;7.850;2023-11-22T00:07:33;11.47;;;9.30;;
4214;SDS011;2121;48.062;7.850;2023-11-22T00:09:58;13.70;;;9.60;;
4214;SDS011;2121;48.062;7.850;2023-11-22T00:12:26;18.00;;;10.83;;
4214;SDS011;2121;48.062;7.850;2023-11-22T00:14:53;13.27;;;9.73;;
4214;SDS011;2121;48.062;7.850;2023-11-22T00:17:19;13.23;;;9.77;;
4214;SDS011;2121;48.062;7.850;2023-11-22T00:19:46;15.70;;;10.70;;
4214;SDS011;2121;48.062;7.850;2023-11-22T00:22:12;13.47;;;9.60;;
4214;SDS011;2121;48.062;7.850;2023-11-22T00:24:40;16.53;;;10.80;;
4214;SDS011;2121;48.062;7.850;2023-11-22T00:27:07;18.67;;;10.57;;
4214;SDS011;2121;48.062;7.850;2023-11-22T00:29:33;17.70;;;12.73;;
4214;SDS011;2121;48.062;7.850;2023-11-22T00:32:00;14.67;;;10.87;;
4214;SDS011;2121;48.062;7.850;2023-11-22T00:34:26;17.33;;;12.20;;
4214;SDS011;2121;48.062;7.850;2023-11-22T00:36:51;18.33;;;10.63;;
4214;SDS011;2121;48.062;7.850;2023-11-22T00:39:18;16.13;;;11.30;;
4214;SDS011;2121;48.062;7.850;2023-11-22T00:41:44;22.40;;;11.27;;
4214;SDS011;2121;48.062;7.850;2023-11-22T00:44:10;25.53;;;12.80;;
4214;SDS011;2121;48.062;7.850;2023-11-22T00:46:37;16.57;;;11.50;;
4214;SDS011;2121;48.062;7.850;2023-11-22T00:49:03;16.40;;;10.70;;
4214;SDS011;2121;48.062;7.850;2023-11-22T00:51:33;19.00;;;12.57;;
4214;SDS011;2121;48.062;7.850;2023-11-22T00:53:59;15.03;;;11.30;;
4214;SDS011;2121;48.062;7.850;2023-11-22T00:56:25;15.20;;;12.10;;
4214;SDS011;2121;48.062;7.850;2023-11-22T00:58:52;19.93;;;12.80;;
4214;SDS011;2121;48.062;7.850;2023-11-22T01:01:21;19.50;;;11.37;;
4214;SDS011;2121;48.062;7.850;2023-11-22T01:03:47;19.57;;;11.57;;
4214;SDS011;2121;48.062;7.850;2023-11-22T01:06:13;19.93;;;12.13;;
4214;SDS011;2121;48.062;7.850;2023-11-22T01:08:39;18.37;;;12.10;;
4214;SDS011;2121;48.062;7.850;2023-11-22T01:11:05;22.77;;;12.90;;
4214;SDS011;2121;48.062;7.850;2023-11-22T01:13:32;20.80;;;13.30;;
4214;SDS011;2121;48.062;7.850;2023-11-22T01:15:58;19.43;;;12.17;;
4214;SDS011;2121;48.062;7.850;2023-11-22T01:18:24;23.00;;;14.03;;
4214;SDS011;2121;48.062;7.850;2023-11-22T01:20:50;21.83;;;12.37;;
4214;SDS011;2121;48.062;7.850;2023-11-22T01:23:16;19.53;;;13.73;;
4214;SDS011;2121;48.062;7.850;2023-11-22T01:25:41;24.43;;;13.33;;
4214;SDS011;2121;48.062;7.850;2023-11-22T01:28:07;20.83;;;12.43;;
4214;SDS011;2121;48.062;7.850;2023-11-22T01:30:36;21.33;;;12.40;;
4214;SDS011;2121;48.062;7.850;2023-11-22T01:33:02;28.43;;;12.60;;
4214;SDS011;2121;48.062;7.850;2023-11-22T01:35:29;21.30;;;12.33;;
4214;SDS011;2121;48.062;7.850;2023-11-22T01:37:55;23.60;;;13.50;;
4214;SDS011;2121;48.062;7.850;2023-11-22T01:40:21;20.13;;;13.70;;
4214;SDS011;2121;48.062;7.850;2023-11-22T01:42:47;22.30;;;12.73;;
4214;SDS011;2121;48.062;7.850;2023-11-22T01:45:13;20.13;;;13.17;;
4214;SDS011;2121;48.062;7.850;2023-11-22T01:47:39;19.90;;;11.87;;
4214;SDS011;2121;48.062;7.850;2023-11-22T01:50:06;22.33;;;12.27;;
4214;SDS011;2121;48.062;7.850;2023-11-22T01:52:33;19.37;;;12.27;;
4214;SDS011;2121;48.062;7.850;2023-11-22T01:55:00;22.73;;;13.60;;
4214;SDS011;2121;48.062;7.850;2023-11-22T01:57:29;20.57;;;12.00;;
4214;SDS011;2121;48.062;7.850;2023-11-22T01:59:59;18.03;;;12.30;;
4214;SDS011;2121;48.062;7.850;2023-11-22T02:02:28;21.37;;;13.10;;
4214;SDS011;2121;48.062;7.850;2023-11-22T02:04:58;19.90;;;13.27;;
4214;SDS011;2121;48.062;7.850;2023-11-22T02:07:24;26.73;;;13.43;;
4214;SDS011;2121;48.062;7.850;2023-11-22T02:09:52;20.23;;;13.63;;
4214;SDS011;2121;48.062;7.850;2023-11-22T02:12:18;17.13;;;11.80;;
4214;SDS011;2121;48.062;7.850;2023-11-22T02:14:45;24.53;;;13.17;;
4214;SDS011;2121;48.062;7.850;2023-11-22T02:17:11;22.77;;;13.60;;
4214;SDS011;2121;48.062;7.850;2023-11-22T02:19:37;22.80;;;12.23;;
4214;SDS011;2121;48.062;7.850;2023-11-22T02:22:03;21.33;;;13.50;;
4214;SDS011;2121;48.062;7.850;2023-11-22T02:24:29;17.30;;;11.90;;
4214;SDS011;2121;48.062;7.850;2023-11-22T02:26:55;19.43;;;11.10;;
4214;SDS011;2121;48.062;7.850;2023-11-22T02:29:20;17.30;;;10.70;;
4214;SDS011;2121;48.062;7.850;2023-11-22T02:31:47;18.03;;;10.00;;
4214;SDS011;2121;48.062;7.850;2023-11-22T02:34:13;11.60;;;7.90;;
4214;SDS011;2121;48.062;7.850;2023-11-22T02:36:41;11.73;;;8.60;;
4214;SDS011;2121;48.062;7.850;2023-11-22T02:39:11;13.17;;;7.77;;
4214;SDS011;2121;48.062;7.850;2023-11-22T02:41:38;14.17;;;9.43;;
4214;SDS011;2121;48.062;7.850;2023-11-22T02:44:04;27.30;;;10.73;;
4214;SDS011;2121;48.062;7.850;2023-11-22T02:46:32;13.30;;;10.17;;
4214;SDS011;2121;48.062;7.850;2023-11-22T02:48:58;14.33;;;9.83;;
4214;SDS011;2121;48.062;7.850;2023-11-22T02:51:24;13.40;;;9.30;;
4214;SDS011;2121;48.062;7.850;2023-11-22T02:53:50;18.93;;;11.30;;
4214;SDS011;2121;48.062;7.850;2023-11-22T02:56:17;14.93;;;8.90;;
4214;SDS011;2121;48.062;7.850;2023-11-22T02:58:43;16.77;;;10.37;;
4214;SDS011;2121;48.062;7.850;2023-11-22T03:01:09;19.10;;;10.40;;
4214;SDS011;2121;48.062;7.850;2023-11-22T03:03:35;17.83;;;10.00;;
4214;SDS011;2121;48.062;7.850;2023-11-22T03:06:01;19.50;;;10.07;;
4214;SDS011;2121;48.062;7.850;2023-11-22T03:08:27;15.27;;;11.27;;
4214;SDS011;2121;48.062;7.850;2023-11-22T03:10:52;14.10;;;10.23;;
4214;SDS011;2121;48.062;7.850;2023-11-22T03:13:19;12.70;;;9.60;;
4214;SDS011;2121;48.062;7.850;2023-11-22T03:15:45;10.37;;;8.03;;
4214;SDS011;2121;48.062;7.850;2023-11-22T03:18:10;13.10;;;8.00;;
4214;SDS011;2121;48.062;7.850;2023-11-22T03:20:36;9.27;;;7.90;;
4214;SDS011;2121;48.062;7.850;2023-11-22T03:23:04;14.90;;;9.33;;
4214;SDS011;2121;48.062;7.850;2023-11-22T03:25:30;12.27;;;8.57;;
4214;SDS011;2121;48.062;7.850;2023-11-22T03:27:56;10.97;;;8.00;;
4214;SDS011;2121;48.062;7.850;2023-11-22T03:30:22;11.70;;;9.27;;
4214;SDS011;2121;48.062;7.850;2023-11-22T03:32:47;11.47;;;8.17;;
4214;SDS011;2121;48.062;7.850;2023-11-22T03:35:14;16.63;;;8.60;;
4214;SDS011;2121;48.062;7.850;2023-11-22T03:37:41;10.53;;;7.80;;
4214;SDS011;2121;48.062;7.850;2023-11-22T03:40:07;12.87;;;7.97;;
4214;SDS011;2121;48.062;7.850;2023-11-22T03:42:36;6.40;;;5.30;;
4214;SDS011;2121;48.062;7.850;2023-11-22T03:45:04;9.10;;;6.90;;
4214;SDS011;2121;48.062;7.850;2023-11-22T03:47:31;8.70;;;7.20;;
4214;SDS011;2121;48.062;7.850;2023-11-22T03:49:57;7.30;;;5.33;;
4214;SDS011;2121;48.062;7.850;2023-11-22T03:52:24;7.30;;;6.60;;
4214;SDS011;2121;48.062;7.850;2023-11-22T03:54:52;8.50;;;7.67;;
4214;SDS011;2121;48.062;7.850;2023-11-22T03:57:17;9.17;;;7.03;;
4214;SDS011;2121;48.062;7.850;2023-11-22T03:59:43;9.80;;;7.43;;
4214;SDS011;2121;48.062;7.850;2023-11-22T04:02:09;11.03;;;7.90;;
4214;SDS011;2121;48.062;7.850;2023-11-22T04:04:36;12.97;;;7.87;;
4214;SDS011;2121;48.062;7.850;2023-11-22T04:07:04;7.27;;;6.50;;
4214;SDS011;2121;48.062;7.850;2023-11-22T04:09:31;12.67;;;8.33;;
4214;SDS011;2121;48.062;7.850;2023-11-22T04:11:57;6.93;;;5.67;;
4214;SDS011;2121;48.062;7.850;2023-11-22T04:14:23;12.40;;;8.27;;
4214;SDS011;2121;48.062;7.850;2023-11-22T04:16:49;12.53;;;7.83;;
4214;SDS011;2121;48.062;7.850;2023-11-22T04:19:15;11.00;;;8.03;;
4214;SDS011;2121;48.062;7.850;2023-11-22T04:21:41;10.90;;;7.47;;
4214;SDS011;2121;48.062;7.850;2023-11-22T04:24:07;15.63;;;8.40;;
4214;SDS011;2121;48.062;7.850;2023-11-22T04:26:33;10.47;;;8.20;;
4214;SDS011;2121;48.062;7.850;2023-11-22T04:28:59;10.27;;;7.30;;
4214;SDS011;2121;48.062;7.850;2023-11-22T04:31:25;9.57;;;8.27;;
4214;SDS011;2121;48.062;7.850;2023-11-22T04:33:51;9.03;;;7.23;;
4214;SDS011;2121;48.062;7.850;2023-11-22T04:36:17;9.17;;;6.80;;
4214;SDS011;2121;48.062;7.850;2023-11-22T04:38:43;13.83;;;8.77;;
4214;SDS011;2121;48.062;7.850;2023-11-22T04:41:09;10.30;;;6.90;;
4214;SDS011;2121;48.062;7.850;2023-11-22T04:43:34;11.00;;;6.93;;
4214;SDS011;2121;48.062;7.850;2023-11-22T04:46:00;12.17;;;8.30;;
4214;SDS011;2121;48.062;7.850;2023-11-22T04:48:26;10.20;;;7.57;;
4214;SDS011;2121;48.062;7.850;2023-11-22T04:50:52;11.50;;;6.40;;
4214;SDS011;2121;48.062;7.850;2023-11-22T04:53:18;9.07;;;5.87;;
4214;SDS011;2121;48.062;7.850;2023-11-22T04:55:44;8.00;;;6.53;;
4214;SDS011;2121;48.062;7.850;2023-11-22T04:58:10;7.43;;;5.90;;
4214;SDS011;2121;48.062;7.850;2023-11-22T05:00:36;10.40;;;6.90;;
4214;SDS011;2121;48.062;7.850;2023-11-22T05:03:02;11.23;;;6.90;;
4214;SDS011;2121;48.062;7.850;2023-11-22T05:05:27;8.43;;;5.93;;
4214;SDS011;2121;48.062;7.850;2023-11-22T05:07:53;6.97;;;5.30;;
4214;SDS011;2121;48.062;7.850;2023-11-22T05:10:19;8.30;;;6.33;;
4214;SDS011;2121;48.062;7.850;2023-11-22T05:12:45;6.30;;;4.37;;
4214;SDS011;2121;48.062;7.850;2023-11-22T05:15:10;7.53;;;5.43;;
4214;SDS011;2121;48.062;7.850;2023-11-22T05:17:36;5.87;;;4.30;;
4214;SDS011;2121;48.062;7.850;2023-11-22T05:20:02;6.27;;;4.67;;
4214;SDS011;2121;48.062;7.850;2023-11-22T05:22:30;5.67;;;5.00;;
4214;SDS011;2121;48.062;7.850;2023-11-22T05:24:56;6.63;;;4.97;;
4214;SDS011;2121;48.062;7.850;2023-11-22T05:27:21;7.27;;;4.67;;
4214;SDS011;2121;48.062;7.850;2023-11-22T05:29:47;5.00;;;4.40;;
4214;SDS011;2121;48.062;7.850;2023-11-22T05:32:13;5.00;;;4.50;;
4214;SDS011;2121;48.062;7.850;2023-11-22T05:34:38;4.67;;;3.30;;
4214;SDS011;2121;48.062;7.850;2023-11-22T05:37:05;8.70;;;4.00;;
4214;SDS011;2121;48.062;7.850;2023-11-22T05:39:31;4.00;;;3.70;;
4214;SDS011;2121;48.062;7.850;2023-11-22T05:41:57;3.97;;;3.47;;
4214;SDS011;2121;48.062;7.850;2023-11-22T05:44:22;4.93;;;4.17;;
4214;SDS011;2121;48.062;7.850;2023-11-22T05:46:50;5.20;;;3.93;;
4214;SDS011;2121;48.062;7.850;2023-11-22T05:49:16;5.83;;;4.10;;
4214;SDS011;2121;48.062;7.850;2023-11-22T05:51:42;6.00;;;3.90;;
4214;SDS011;2121;48.062;7.850;2023-11-22T05:54:08;4.37;;;3.70;;
4214;SDS011;2121;48.062;7.850;2023-11-22T05:56:36;6.00;;;4.20;;
4214;SDS011;2121;48.062;7.850;2023-11-22T05:59:02;3.67;;;3.37;;
4214;SDS011;2121;48.062;7.850;2023-11-22T06:01:28;3.43;;;3.13;;
4214;SDS011;2121;48.062;7.850;2023-11-22T06:03:55;3.63;;;3.27;;
4214;SDS011;2121;48.062;7.850;2023-11-22T06:06:21;4.27;;;3.40;;
4214;SDS011;2121;48.062;7.850;2023-11-22T06:08:47;5.83;;;4.20;;
4214;SDS011;2121;48.062;7.850;2023-11-22T06:11:13;4.80;;;3.60;;
4214;SDS011;2121;48.062;7.850;2023-11-22T06:13:40;4.37;;;3.37;;
4214;SDS011;2121;48.062;7.850;2023-11-22T06:16:09;5.43;;;3.23;;
4214;SDS011;2121;48.062;7.850;2023-11-22T06:18:35;4.30;;;3.23;;
4214;SDS011;2121;48.062;7.850;2023-11-22T06:21:06;6.17;;;3.37;;
4214;SDS011;2121;48.062;7.850;2023-11-22T06:23:33;2.63;;;2.43;;
4214;SDS011;2121;48.062;7.850;2023-11-22T06:25:59;4.43;;;4.03;;
4214;SDS011;2121;48.062;7.850;2023-11-22T06:28:24;3.57;;;2.97;;
4214;SDS011;2121;48.062;7.850;2023-11-22T06:30:50;9.03;;;3.10;;
4214;SDS011;2121;48.062;7.850;2023-11-22T06:33:16;4.07;;;3.03;;
4214;SDS011;2121;48.062;7.850;2023-11-22T06:35:42;6.80;;;5.80;;
4214;SDS011;2121;48.062;7.850;2023-11-22T06:38:08;3.43;;;3.23;;
4214;SDS011;2121;48.062;7.850;2023-11-22T06:40:34;3.50;;;3.20;;
4214;SDS011;2121;48.062;7.850;2023-11-22T06:43:00;3.83;;;3.40;;
4214;SDS011;2121;48.062;7.850;2023-11-22T06:45:29;4.83;;;3.73;;
4214;SDS011;2121;48.062;7.850;2023-11-22T06:47:56;7.27;;;3.10;;
4214;SDS011;2121;48.062;7.850;2023-11-22T06:50:23;3.03;;;2.70;;
4214;SDS011;2121;48.062;7.850;2023-11-22T06:52:49;3.20;;;2.70;;
4214;SDS011;2121;48.062;7.850;2023-11-22T06:55:17;4.10;;;3.57;;
4214;SDS011;2121;48.062;7.850;2023-11-22T06:57:43;3.33;;;3.07;;
4214;SDS011;2121;48.062;7.850;2023-11-22T07:00:09;4.13;;;3.73;;
4214;SDS011;2121;48.062;7.850;2023-11-22T07:02:38;4.77;;;3.33;;
4214;SDS011;2121;48.062;7.850;2023-11-22T07:05:04;4.00;;;3.60;;
4214;SDS011;2121;48.062;7.850;2023-11-22T07:07:34;6.60;;;4.33;;
4214;SDS011;2121;48.062;7.850;2023-11-22T07:10:04;5.60;;;3.60;;
4214;SDS011;2121;48.062;7.850;2023-11-22T07:12:33;3.20;;;2.53;;
4214;SDS011;2121;48.062;7.850;2023-11-22T07:15:02;4.50;;;4.10;;
4214;SDS011;2121;48.062;7.850;2023-11-22T07:17:30;6.20;;;4.00;;
4214;SDS011;2121;48.062;7.850;2023-11-22T07:19:58;7.17;;;6.10;;
4214;SDS011;2121;48.062;7.850;2023-11-22T07:22:25;5.03;;;4.03;;
4214;SDS011;2121;48.062;7.850;2023-11-22T07:24:51;6.63;;;3.93;;
4214;SDS011;2121;48.062;7.850;2023-11-22T07:27:19;4.30;;;3.90;;
4214;SDS011;2121;48.062;7.850;2023-11-22T07:29:45;6.90;;;4.50;;
4214;SDS011;2121;48.062;7.850;2023-11-22T07:32:12;10.50;;;4.83;;
4214;SDS011;2121;48.062;7.850;2023-11-22T07:34:39;6.60;;;4.37;;
4214;SDS011;2121;48.062;7.850;2023-11-22T07:37:06;7.00;;;5.50;;
4214;SDS011;2121;48.062;7.850;2023-11-22T07:39:33;4.97;;;3.90;;
4214;SDS011;2121;48.062;7.850;2023-11-22T07:42:00;8.00;;;4.80;;
4214;SDS011;2121;48.062;7.850;2023-11-22T07:44:28;7.80;;;4.67;;
4214;SDS011;2121;48.062;7.850;2023-11-22T07:46:57;6.83;;;4.77;;
4214;SDS011;2121;48.062;7.850;2023-11-22T07:49:25;5.83;;;5.00;;
4214;SDS011;2121;48.062;7.850;2023-11-22T07:51:51;4.93;;;3.33;;
4214;SDS011;2121;48.062;7.850;2023-11-22T07:54:20;6.47;;;4.30;;
4214;SDS011;2121;48.062;7.850;2023-11-22T07:56:50;6.17;;;4.80;;
4214;SDS011;2121;48.062;7.850;2023-11-22T07:59:21;7.60;;;6.20;;
4214;SDS011;2121;48.062;7.850;2023-11-22T08:01:46;7.00;;;4.67;;
4214;SDS011;2121;48.062;7.850;2023-11-22T08:04:15;9.50;;;5.80;;
4214;SDS011;2121;48.062;7.850;2023-11-22T08:06:42;6.90;;;4.83;;
4214;SDS011;2121;48.062;7.850;2023-11-22T08:09:07;6.70;;;6.00;;
4214;SDS011;2121;48.062;7.850;2023-11-22T08:11:34;9.23;;;6.20;;
4214;SDS011;2121;48.062;7.850;2023-11-22T08:14:01;7.77;;;5.50;;
4214;SDS011;2121;48.062;7.850;2023-11-22T08:16:27;10.40;;;5.10;;
4214;SDS011;2121;48.062;7.850;2023-11-22T08:18:53;6.40;;;5.60;;
4214;SDS011;2121;48.062;7.850;2023-11-22T08:21:21;6.63;;;5.20;;
4214;SDS011;2121;48.062;7.850;2023-11-22T08:23:48;9.93;;;5.73;;
4214;SDS011;2121;48.062;7.850;2023-11-22T08:26:14;7.90;;;5.27;;
4214;SDS011;2121;48.062;7.850;2023-11-22T08:28:40;19.33;;;5.40;;
4214;SDS011;2121;48.062;7.850;2023-11-22T08:31:07;10.23;;;5.43;;
4214;SDS011;2121;48.062;7.850;2023-11-22T08:33:36;11.53;;;6.30;;
4214;SDS011;2121;48.062;7.850;2023-11-22T08:36:03;10.00;;;7.40;;
4214;SDS011;2121;48.062;7.850;2023-11-22T08:38:34;7.50;;;5.90;;
4214;SDS011;2121;48.062;7.850;2023-11-22T08:41:05;11.30;;;6.37;;
4214;SDS011;2121;48.062;7.850;2023-11-22T08:43:32;10.43;;;6.57;;
4214;SDS011;2121;48.062;7.850;2023-11-22T08:45:58;7.80;;;5.80;;
4214;SDS011;2121;48.062;7.850;2023-11-22T08:48:25;6.37;;;5.53;;
4214;SDS011;2121;48.062;7.850;2023-11-22T08:50:51;9.87;;;6.30;;
4214;SDS011;2121;48.062;7.850;2023-11-22T08:53:20;6.97;;;5.47;;
4214;SDS011;2121;48.062;7.850;2023-11-22T08:55:47;7.37;;;5.47;;
4214;SDS011;2121;48.062;7.850;2023-11-22T08:58:13;6.87;;;4.50;;
4214;SDS011;2121;48.062;7.850;2023-11-22T09:00:39;6.83;;;5.67;;
4214;SDS011;2121;48.062;7.850;2023-11-22T09:03:06;5.03;;;4.53;;
4214;SDS011;2121;48.062;7.850;2023-11-22T09:05:33;5.70;;;5.30;;
4214;SDS011;2121;48.062;7.850;2023-11-22T09:07:59;9.67;;;5.57;;
4214;SDS011;2121;48.062;7.850;2023-11-22T09:10:25;6.70;;;5.17;;
4214;SDS011;2121;48.062;7.850;2023-11-22T09:12:51;7.80;;;6.13;;
4214;SDS011;2121;48.062;7.850;2023-11-22T09:15:17;7.20;;;5.57;;
4214;SDS011;2121;48.062;7.850;2023-11-22T09:17:49;7.63;;;5.63;;
4214;SDS011;2121;48.062;7.850;2023-11-22T09:20:17;6.07;;;4.40;;
4214;SDS011;2121;48.062;7.850;2023-11-22T09:22:47;5.90;;;5.30;;
4214;SDS011;2121;48.062;7.850;2023-11-22T09:25:22;4.73;;;4.30;;
4214;SDS011;2121;48.062;7.850;2023-11-22T09:27:51;7.57;;;5.63;;
4214;SDS011;2121;48.062;7.850;2023-11-22T09:30:21;6.47;;;4.30;;
4214;SDS011;2121;48.062;7.850;2023-11-22T09:33:21;6.13;;;5.40;;
4214;SDS011;2121;48.062;7.850;2023-11-22T09:35:49;5.70;;;4.37;;
4214;SDS011;2121;48.062;7.850;2023-11-22T09:38:15;6.27;;;4.87;;
4214;SDS011;2121;48.062;7.850;2023-11-22T09:40:42;10.97;;;5.90;;
4214;SDS011;2121;48.062;7.850;2023-11-22T09:43:11;7.20;;;5.87;;
4214;SDS011;2121;48.062;7.850;2023-11-22T09:45:48;7.67;;;5.70;;
4214;SDS011;2121;48.062;7.850;2023-11-22T09:48:18;11.60;;;6.37;;
4214;SDS011;2121;48.062;7.850;2023-11-22T09:50:57;11.40;;;6.90;;
4214;SDS011;2121;48.062;7.850;2023-11-22T09:56:08;6.53;;;4.47;;
4214;SDS011;2121;48.062;7.850;2023-11-22T09:58:35;7.00;;;4.87;;
4214;SDS011;2121;48.062;7.850;2023-11-22T10:01:08;4.97;;;4.50;;
4214;SDS011;2121;48.062;7.850;2023-11-22T10:03:38;12.40;;;7.10;;
4214;SDS011;2121;48.062;7.850;2023-11-22T10:06:05;5.80;;;4.63;;
4214;SDS011;2121;48.062;7.850;2023-11-22T10:08:32;7.33;;;5.10;;
4214;SDS011;2121;48.062;7.850;2023-11-22T10:10:58;7.90;;;5.80;;
4214;SDS011;2121;48.062;7.850;2023-11-22T10:13:25;5.20;;;4.70;;
4214;SDS011;2121;48.062;7.850;2023-11-22T10:15:52;8.43;;;5.57;;
4214;SDS011;2121;48.062;7.850;2023-11-22T10:18:19;7.40;;;4.97;;
4214;SDS011;2121;48.062;7.850;2023-11-22T10:20:46;10.70;;;6.03;;
4214;SDS011;2121;48.062;7.850;2023-11-22T10:23:15;6.33;;;5.20;;
4214;SDS011;2121;48.062;7.850;2023-11-22T10:25:48;6.70;;;5.10;;
4214;SDS011;2121;48.062;7.850;2023-11-22T10:28:25;4.93;;;4.43;;
4214;SDS011;2121;48.062;7.850;2023-11-22T10:30:55;6.30;;;4.33;;
4214;SDS011;2121;48.062;7.850;2023-11-22T10:33:21;7.57;;;5.20;;
4214;SDS011;2121;48.062;7.850;2023-11-22T10:35:49;4.20;;;3.80;;
4214;SDS011;2121;48.062;7.850;2023-11-22T10:38:17;9.80;;;5.70;;
4214;SDS011;2121;48.062;7.850;2023-11-22T10:40:44;4.37;;;3.97;;
4214;SDS011;2121;48.062;7.850;2023-11-22T10:43:11;6.20;;;5.40;;
4214;SDS011;2121;48.062;7.850;2023-11-22T10:45:38;6.93;;;4.10;;
4214;SDS011;2121;48.062;7.850;2023-11-22T10:48:06;4.93;;;4.00;;
4214;SDS011;2121;48.062;7.850;2023-11-22T10:50:34;8.90;;;5.20;;
4214;SDS011;2121;48.062;7.850;2023-11-22T10:52:59;8.40;;;4.43;;
4214;SDS011;2121;48.062;7.850;2023-11-22T10:55:31;4.23;;;3.83;;
4214;SDS011;2121;48.062;7.850;2023-11-22T10:58:01;4.47;;;4.07;;
4214;SDS011;2121;48.062;7.850;2023-11-22T11:00:28;4.80;;;3.93;;
4214;SDS011;2121;48.062;7.850;2023-11-22T11:03:07;5.23;;;3.90;;
4214;SDS011;2121;48.062;7.850;2023-11-22T11:05:40;4.07;;;3.73;;
4214;SDS011;2121;48.062;7.850;2023-11-22T11:08:14;6.23;;;4.30;;
4214;SDS011;2121;48.062;7.850;2023-11-22T11:10:45;6.47;;;5.30;;
4214;SDS011;2121;48.062;7.850;2023-11-22T11:13:12;7.40;;;4.63;;
4214;SDS011;2121;48.062;7.850;2023-11-22T11:15:42;6.47;;;3.60;;
4214;SDS011;2121;48.062;7.850;2023-11-22T11:18:09;4.77;;;4.20;;
4214;SDS011;2121;48.062;7.850;2023-11-22T11:20:49;6.80;;;4.20;;
4214;SDS011;2121;48.062;7.850;2023-11-22T11:23:21;5.70;;;3.67;;
4214;SDS011;2121;48.062;7.850;2023-11-22T11:25:50;6.53;;;2.87;;
4214;SDS011;2121;48.062;7.850;2023-11-22T11:28:21;3.20;;;2.90;;
4214;SDS011;2121;48.062;7.850;2023-11-22T11:30:50;3.83;;;3.53;;
4214;SDS011;2121;48.062;7.850;2023-11-22T11:33:33;3.63;;;3.40;;
4214;SDS011;2121;48.062;7.850;2023-11-22T11:36:03;7.60;;;3.80;;
4214;SDS011;2121;48.062;7.850;2023-11-22T11:38:30;4.10;;;3.70;;
4214;SDS011;2121;48.062;7.850;2023-11-22T11:41:08;3.67;;;3.23;;
4214;SDS011;2121;48.062;7.850;2023-11-22T11:43:40;5.80;;;3.97;;
4214;SDS011;2121;48.062;7.850;2023-11-22T11:46:14;3.63;;;3.30;;
4214;SDS011;2121;48.062;7.850;2023-11-22T11:48:45;3.80;;;3.40;;
4214;SDS011;2121;48.062;7.850;2023-11-22T11:51:19;3.77;;;3.47;;
4214;SDS011;2121;48.062;7.850;2023-11-22T11:53:50;4.83;;;3.67;;
4214;SDS011;2121;48.062;7.850;2023-11-22T11:56:16;4.33;;;3.93;;
4214;SDS011;2121;48.062;7.850;2023-11-22T11:58:45;6.13;;;3.83;;
4214;SDS011;2121;48.062;7.850;2023-11-22T12:01:17;4.90;;;3.33;;
4214;SDS011;2121;48.062;7.850;2023-11-22T12:03:47;13.77;;;5.67;;
4214;SDS011;2121;48.062;7.850;2023-11-22T12:06:16;4.23;;;3.63;;
4214;SDS011;2121;48.062;7.850;2023-11-22T12:08:44;4.50;;;3.40;;
4214;SDS011;2121;48.062;7.850;2023-11-22T12:11:11;5.30;;;3.30;;
4214;SDS011;2121;48.062;7.850;2023-11-22T12:13:37;5.70;;;4.33;;
4214;SDS011;2121;48.062;7.850;2023-11-22T12:16:04;12.17;;;7.30;;
4214;SDS011;2121;48.062;7.850;2023-11-22T12:18:45;3.67;;;3.37;;
4214;SDS011;2121;48.062;7.850;2023-11-22T12:21:13;11.03;;;4.00;;
4214;SDS011;2121;48.062;7.850;2023-11-22T12:23:41;5.00;;;3.57;;
4214;SDS011;2121;48.062;7.850;2023-11-22T12:26:12;6.03;;;4.27;;
4214;SDS011;2121;48.062;7.850;2023-11-22T12:28:45;5.60;;;4.63;;
4214;SDS011;2121;48.062;7.850;2023-11-22T12:31:14;3.87;;;3.47;;
4214;SDS011;2121;48.062;7.850;2023-11-22T12:33:41;6.07;;;4.80;;
4214;SDS011;2121;48.062;7.850;2023-11-22T12:36:09;7.87;;;5.00;;
4214;SDS011;2121;48.062;7.850;2023-11-22T12:38:41;6.53;;;4.03;;
4214;SDS011;2121;48.062;7.850;2023-11-22T12:41:08;5.20;;;3.60;;
4214;SDS011;2121;48.062;7.850;2023-11-22T12:43:34;6.40;;;4.63;;
4214;SDS011;2121;48.062;7.850;2023-11-22T12:46:04;7.80;;;4.13;;
4214;SDS011;2121;48.062;7.850;2023-11-22T12:48:32;8.70;;;4.80;;
4214;SDS011;2121;48.062;7.850;2023-11-22T12:51:00;4.53;;;3.93;;
4214;SDS011;2121;48.062;7.850;2023-11-22T12:53:26;4.67;;;3.30;;
4214;SDS011;2121;48.062;7.850;2023-11-22T12:55:53;10.93;;;6.30;;
4214;SDS011;2121;48.062;7.850;2023-11-22T12:58:21;6.37;;;4.50;;
4214;SDS011;2121;48.062;7.850;2023-11-22T13:00:50;3.83;;;3.33;;
4214;SDS011;2121;48.062;7.850;2023-11-22T13:03:23;6.97;;;4.50;;
4214;SDS011;2121;48.062;7.850;2023-11-22T13:05:53;4.57;;;3.87;;
4214;SDS011;2121;48.062;7.850;2023-11-22T13:08:19;6.50;;;4.17;;
4214;SDS011;2121;48.062;7.850;2023-11-22T13:10:48;4.17;;;3.77;;
4214;SDS011;2121;48.062;7.850;2023-11-22T13:13:19;4.97;;;4.07;;
4214;SDS011;2121;48.062;7.850;2023-11-22T13:15:49;4.90;;;3.90;;
4214;SDS011;2121;48.062;7.850;2023-11-22T13:18:15;4.17;;;3.57;;
4214;SDS011;2121;48.062;7.850;2023-11-22T13:20:42;3.97;;;3.57;;
4214;SDS011;2121;48.062;7.850;2023-11-22T13:23:08;4.53;;;3.70;;
4214;SDS011;2121;48.062;7.850;2023-11-22T13:25:34;5.70;;;4.07;;
4214;SDS011;2121;48.062;7.850;2023-11-22T13:28:00;6.00;;;4.20;;
4214;SDS011;2121;48.062;7.850;2023-11-22T13:30:27;4.33;;;3.83;;
4214;SDS011;2121;48.062;7.850;2023-11-22T13:32:53;4.57;;;3.53;;
4214;SDS011;2121;48.062;7.850;2023-11-22T13:35:27;4.70;;;3.43;;
4214;SDS011;2121;48.062;7.850;2023-11-22T13:37:59;4.07;;;2.83;;
4214;SDS011;2121;48.062;7.850;2023-11-22T13:40:27;11.67;;;4.40;;
4214;SDS011;2121;48.062;7.850;2023-11-22T13:42:56;6.20;;;3.70;;
4214;SDS011;2121;48.062;7.850;2023-11-22T13:45:23;4.50;;;4.10;;
4214;SDS011;2121;48.062;7.850;2023-11-22T13:47:49;6.63;;;3.60;;
4214;SDS011;2121;48.062;7.850;2023-11-22T13:50:22;6.40;;;4.63;;
4214;SDS011;2121;48.062;7.850;2023-11-22T13:52:48;8.03;;;6.00;;
4214;SDS011;2121;48.062;7.850;2023-11-22T13:55:15;5.43;;;4.90;;
4214;SDS011;2121;48.062;7.850;2023-11-22T13:57:43;5.13;;;4.30;;
4214;SDS011;2121;48.062;7.850;2023-11-22T14:00:09;5.37;;;4.20;;
4214;SDS011;2121;48.062;7.850;2023-11-22T14:02:44;9.30;;;5.27;;
4214;SDS011;2121;48.062;7.850;2023-11-22T14:05:14;6.00;;;5.23;;
4214;SDS011;2121;48.062;7.850;2023-11-22T14:07:40;4.30;;;3.53;;
4214;SDS011;2121;48.062;7.850;2023-11-22T14:10:07;5.70;;;4.70;;
4214;SDS011;2121;48.062;7.850;2023-11-22T14:12:34;5.83;;;3.90;;
4214;SDS011;2121;48.062;7.850;2023-11-22T14:15:00;11.43;;;4.53;;
4214;SDS011;2121;48.062;7.850;2023-11-22T14:17:29;6.63;;;4.30;;
4214;SDS011;2121;48.062;7.850;2023-11-22T14:19:55;3.47;;;3.17;;
4214;SDS011;2121;48.062;7.850;2023-11-22T14:22:21;6.27;;;4.03;;
4214;SDS011;2121;48.062;7.850;2023-11-22T14:24:51;6.00;;;3.87;;
4214;SDS011;2121;48.062;7.850;2023-11-22T14:27:17;10.23;;;4.00;;
4214;SDS011;2121;48.062;7.850;2023-11-22T14:29:44;3.93;;;3.00;;
4214;SDS011;2121;48.062;7.850;2023-11-22T14:32:14;3.30;;;2.93;;
4214;SDS011;2121;48.062;7.850;2023-11-22T14:34:41;3.97;;;3.57;;
4214;SDS011;2121;48.062;7.850;2023-11-22T14:37:08;3.20;;;2.90;;
4214;SDS011;2121;48.062;7.850;2023-11-22T14:39:35;10.10;;;3.70;;
4214;SDS011;2121;48.062;7.850;2023-11-22T14:42:02;5.10;;;3.80;;
4214;SDS011;2121;48.062;7.850;2023-11-22T14:44:30;6.60;;;4.80;;
4214;SDS011;2121;48.062;7.850;2023-11-22T14:46:56;6.20;;;4.20;;
4214;SDS011;2121;48.062;7.850;2023-11-22T14:49:24;5.83;;;3.57;;
4214;SDS011;2121;48.062;7.850;2023-11-22T14:51:50;8.13;;;4.97;;
4214;SDS011;2121;48.062;7.850;2023-11-22T14:54:16;4.40;;;4.00;;
4214;SDS011;2121;48.062;7.850;2023-11-22T14:56:42;4.23;;;3.47;;
4214;SDS011;2121;48.062;7.850;2023-11-22T14:59:09;4.07;;;3.50;;
4214;SDS011;2121;48.062;7.850;2023-11-22T15:01:35;5.83;;;4.20;;
4214;SDS011;2121;48.062;7.850;2023-11-22T15:04:01;9.70;;;6.00;;
4214;SDS011;2121;48.062;7.850;2023-11-22T15:06:27;9.10;;;5.20;;
4214;SDS011;2121;48.062;7.850;2023-11-22T15:08:53;10.87;;;6.77;;
4214;SDS011;2121;48.062;7.850;2023-11-22T15:11:18;7.97;;;5.00;;